Terminal Aerodrome Forecast
Issued by NWS Charleston, WV

Current Version | Previous Version | Graphics & Text | Print | Product List | Glossary On
Versions: 1 2 3 4 5 6 7 8 9 10 11 12 13 14 15 16 17 18 19 20 21 22
000
FTUS41 KRLX 151700
TAFEKN
TAF
KEKN 151731Z 1518/1618 02004KT P6SM BKN200
     FM161300 15010G15KT P6SM BKN070
     FM161500 15011G17KT 6SM -SHRA BR OVC060=

USA.gov is the U.S. government's official web portal to all federal, state and local government web resources and services.